Stacy, NC (28581)

7:38 AM EDT on September 02, 2015 (GMT -0400)
Core Sound's 2 West Shore Heel of Rock Jetty | | Change Station
CLOSE
Current Station
Personal Weather Station
Location: Davis, NC
Elevation: 13 ft
Nearby Weather Stations

Elev 13 ft 34.80 °N, 76.46 °W | Updated 3 minutes ago

Clear
Clear
74.2 °F
Feels Like 71 °F
N
2.0
Wind Variable Wind from WNW
Gusts 2.0 mph

Today
High -- | Low -- °F
--% Chance of Precip.
Yesterday
High -- | Low -- °F
Precip. -- in
6:39 AM 7:31 PM
Waning Gibbous, 81% visible
Pressure 30.06 in
Visibility 10.0 miles
Clouds Clear
Heat Index 71 °F
Dew Point 73 °F
Humidity 97%
Rainfall 0.00 in
Snow Depth Not available.
UV 0 out of 12
Pollen 8.70 out of 12
Air Quality Not available.
Flu Activity Not available.
METAR KMRH 021058Z AUTO 29004KT 10SM CLR 23/23 A3006 RMK AO2 SLP180 T02330233 TSNO
Pressure 30.06 in
Visibility 10.0 miles
Clouds Clear
Heat Index 71 °F
Dew Point 73 °F
Humidity 97%
Rainfall 0.00 in
Snow Depth Not available.
UV 0 out of 12
Pollen 8.70 out of 12
Air Quality Not available.
Flu Activity Not available.
METAR KMRH 021058Z AUTO 29004KT 10SM CLR 23/23 A3006 RMK AO2 SLP180 T02330233 TSNO

10-Day Weather Forecast

×

Almanac

Astronomy

Sep. 02, 2015 Rise Set
Actual Time
Civil Twilight
Nautical Twilight
Astronomical Twilight
Moon
Length of Visible Light
Length of Day
Tomorrow will be .
, % of the Moon is Illuminated

Today's Extremes

State Highs State Lows

Community

WunderPhotos

Upload Photos

1,851,736 photos uploaded!

WunderBlogs® & News

Nearby

Air Quality

  Air Quality AQ Index Pollutant
Not available.

Snow Depth

Station Depth Elevation

Earthquake Activity

City Distance Mag. Time & Date
Minimum magnitude displayed is 2.5.

Coastal Water Temperatures

Place Temperature

Stations

Nearby Weather Stations

Station Location Temp. Windchill Dew Point Humidity Wind Precip. Elev Updated Type